METAR Data
IDs: Format: Raw Decoded Include TAF

Data at: 1245 UTC 07 Jul 2020

K0A9 071235Z AUTO 00000KT 10SM CLR 23/19 A3007 RMK AO2
K0A9 071215Z AUTO VRB04KT 10SM CLR 22/19 A3007 RMK AO2
K0A9 071155Z AUTO 00000KT 10SM CLR 21/18 A3006 RMK AO2
K0A9 071135Z AUTO 00000KT 10SM CLR 21/18 A3006 RMK AO2
K0A9 071115Z AUTO 08005KT 10SM CLR 20/17 A3006 RMK AO2
K0A9 071055Z AUTO 08004KT 10SM CLR 20/17 A3006 RMK AO2
K0A9 071035Z AUTO 00000KT 10SM CLR 20/17 A3007 RMK AO2
K0A9 071015Z AUTO 00000KT 10SM CLR 20/17 A3007 RMK AO2
K0A9 070955Z AUTO 00000KT 10SM CLR 20/17 A3006 RMK AO2
K0A9 070935Z AUTO 08004KT 10SM CLR 20/17 A3006 RMK AO2
K0A9 070915Z AUTO 07004KT 10SM CLR 20/17 A3007 RMK AO2
K0A9 070855Z AUTO 06004KT 10SM CLR 20/17 A3007 RMK AO2
K0A9 070835Z AUTO 07003KT 10SM CLR 20/16 A3007 RMK AO2
K0A9 070815Z AUTO VRB03KT 10SM CLR 20/16 A3007 RMK AO2
K0A9 070755Z AUTO 00000KT 10SM CLR 19/17 A3008 RMK AO2
K0A9 070735Z AUTO 07005KT 10SM CLR 20/17 A3008 RMK AO2
K0A9 070715Z AUTO 08005KT 10SM CLR 20/16 A3009 RMK AO2
K0A9 070655Z AUTO VRB04KT 10SM CLR 20/16 A3009 RMK AO2
K0A9 070635Z AUTO 06004KT 10SM CLR 20/17 A3009 RMK AO2
K0A9 070615Z AUTO 08003KT 10SM CLR 20/17 A3009 RMK AO2
K0A9 070555Z AUTO 09004KT 10SM CLR 20/17 A3009 RMK AO2
K0A9 070535Z AUTO 07004KT 10SM CLR 20/17 A3009 RMK AO2
K0A9 070515Z AUTO 00000KT 10SM CLR 21/18 A3009 RMK AO2
K0A9 070455Z AUTO 09004KT 10SM CLR 21/18 A3009 RMK AO2
K0A9 070435Z AUTO VRB03KT 10SM CLR 21/18 A3009 RMK AO2
K0A9 070415Z AUTO 06003KT 10SM CLR 21/18 A3009 RMK AO2
K0A9 070355Z AUTO 09004KT 10SM CLR 21/18 A3010 RMK AO2
K0A9 070335Z AUTO 10006KT 10SM CLR 22/18 A3009 RMK AO2
K0A9 070315Z AUTO 00000KT 10SM CLR 23/18 A3009 RMK AO2
K0A9 070255Z AUTO 08006KT 10SM CLR 23/18 A3009 RMK AO2
K0A9 070235Z AUTO 07005KT 10SM CLR 24/18 A3009 RMK AO2
K0A9 070215Z AUTO VRB04KT 10SM CLR 24/18 A3008 RMK AO2
K0A9 070155Z AUTO VRB03KT 10SM CLR 24/18 A3007 RMK AO2
K0A9 070135Z AUTO 06003KT 10SM CLR 24/18 A3007 RMK AO2
K0A9 070115Z AUTO VRB04KT 10SM CLR 25/18 A3007 RMK AO2
K0A9 070055Z AUTO 09004KT 10SM CLR 25/18 A3007 RMK AO2
K0A9 070035Z AUTO 14006KT 10SM CLR 27/17 A3005 RMK AO2
K0A9 070015Z AUTO 14004KT 10SM CLR 27/17 A3006 RMK AO2
K0A9 062355Z AUTO 11004KT 10SM CLR 27/18 A3005 RMK AO2
K0A9 062335Z AUTO VRB04KT 10SM CLR 28/17 A3006 RMK AO2
K0A9 062315Z AUTO 09004KT 10SM CLR 27/17 A3005 RMK AO2
K0A9 062250Z AUTO 10006KT 10SM CLR 28/16 A3005 RMK AO2
K0A9 062235Z AUTO 12006KT 10SM CLR 29/16 A3005 RMK AO2
K0A9 062215Z AUTO 09007KT 10SM CLR 29/16 A3005 RMK AO2
K0A9 062155Z AUTO 09007KT 10SM CLR 29/15 A3005 RMK AO2
K0A9 062135Z AUTO 10007KT 10SM CLR 30/16 A3005 RMK AO2
K0A9 062115Z AUTO VRB05G10KT 10SM CLR 30/17 A3005 RMK AO2
K0A9 062055Z AUTO VRB05KT 10SM CLR 30/16 A3005 RMK AO2
K0A9 062035Z AUTO 12006KT 10SM CLR 30/16 A3005 RMK AO2
K0A9 062015Z AUTO 10008KT 10SM CLR 30/16 A3006 RMK AO2
K0A9 061955Z AUTO 12005KT 10SM CLR 30/15 A3006 RMK AO2
K0A9 061935Z AUTO VRB06G12KT 10SM CLR 31/15 A3007 RMK AO2
K0A9 061915Z AUTO 11006G11KT 10SM CLR 31/15 A3006 RMK AO2
K0A9 061855Z AUTO 12006G11KT 10SM CLR 31/15 A3006 RMK AO2
K0A9 061835Z AUTO 09009KT 10SM CLR 31/15 A3006 RMK AO2
K0A9 061815Z AUTO 09007KT 060V130 10SM CLR 31/16 A3007 RMK AO2
K0A9 061755Z AUTO 07005KT 10SM CLR 31/16 A3007 RMK AO2
K0A9 061735Z AUTO 10009KT 10SM CLR 31/15 A3008 RMK AO2
K0A9 061715Z AUTO 13004KT 10SM CLR 31/16 A3009 RMK AO2
K0A9 061655Z AUTO VRB03G13KT 10SM CLR 30/16 A3009 RMK AO2
K0A9 061635Z AUTO 10007KT 070V130 10SM CLR 30/17 A3009 RMK AO2
K0A9 061615Z AUTO 13007KT 100V160 10SM CLR 30/18 A3010 RMK AO2
K0A9 061555Z AUTO 05006KT 10SM CLR 30/17 A3010 RMK AO2
K0A9 061535Z AUTO VRB06KT 10SM CLR 29/17 A3010 RMK AO2
K0A9 061515Z AUTO VRB05KT 10SM CLR 29/17 A3011 RMK AO2
K0A9 061455Z AUTO 13006KT 10SM CLR 29/18 A3011 RMK AO2
K0A9 061435Z AUTO 00000KT 10SM CLR 28/19 A3010 RMK AO2
K0A9 061415Z AUTO VRB03KT 10SM CLR 27/19 A3010 RMK AO2
K0A9 061355Z AUTO 12004KT 10SM CLR 26/20 A3011 RMK AO2
K0A9 061335Z AUTO 11004KT 10SM CLR 26/20 A3010 RMK AO2
K0A9 061315Z AUTO 13003KT 10SM CLR 25/19 A3010 RMK AO2
K0A9 061255Z AUTO VRB04KT 10SM CLR 24/20 A3010 RMK AO2
K0A9 061235Z AUTO 03004KT 10SM CLR 24/19 A3010 RMK AO2
K0A9 061215Z AUTO 03004KT 10SM CLR 23/19 A3010 RMK AO2
K0A9 061155Z AUTO 03005KT 10SM CLR 22/19 A3010 RMK AO2
K0A9 061135Z AUTO 05003KT 10SM CLR 21/19 A3009 RMK AO2
K0A9 061115Z AUTO 00000KT 10SM CLR 21/18 A3009 RMK AO2
K0A9 061055Z AUTO 00000KT 10SM CLR 21/18 A3009 RMK AO2
K0A9 061035Z AUTO 06004KT 10SM CLR 20/18 A3008 RMK AO2
K0A9 061015Z AUTO 00000KT 10SM CLR 20/18 A3007 RMK AO2
K0A9 060955Z AUTO 00000KT 10SM CLR 20/18 A3007 RMK AO2
K0A9 060935Z AUTO 00000KT 10SM CLR 20/18 A3006 RMK AO2
K0A9 060915Z AUTO 00000KT 10SM CLR 21/19 A3005 RMK AO2
K0A9 060855Z AUTO 08004KT 10SM CLR 21/19 A3004 RMK AO2
K0A9 060835Z AUTO 06004KT 10SM CLR 21/19 A3004 RMK AO2
K0A9 060815Z AUTO 03003KT 10SM CLR 20/19 A3004 RMK AO2
K0A9 060755Z AUTO 00000KT 10SM CLR 21/19 A3004 RMK AO2
K0A9 060735Z AUTO 05003KT 10SM CLR 21/19 A3004 RMK AO2
K0A9 060715Z AUTO 00000KT 10SM CLR 21/19 A3004 RMK AO2
K0A9 060655Z AUTO 00000KT 10SM CLR 21/19 A3004 RMK AO2
K0A9 060635Z AUTO 05004KT 10SM CLR 22/19 A3005 RMK AO2
K0A9 060615Z AUTO 04004KT 10SM CLR 21/19 A3005 RMK AO2
K0A9 060555Z AUTO 00000KT 10SM CLR 21/19 A3005 RMK AO2
K0A9 060535Z AUTO 00000KT 10SM FEW043 FEW049 SCT055 21/19 A3005 RMK AO2
K0A9 060515Z AUTO 00000KT 10SM FEW041 FEW048 SCT055 22/19 A3006 RMK AO2
K0A9 060455Z AUTO 00000KT 10SM SCT044 SCT055 22/19 A3007 RMK AO2
K0A9 060435Z AUTO 06003KT 10SM SCT047 22/19 A3007 RMK AO2
K0A9 060415Z AUTO 00000KT 10SM SCT048 BKN055 BKN110 22/19 A3007 RMK AO2
K0A9 060355Z AUTO 00000KT 10SM BKN050 BKN060 BKN110 22/19 A3007 RMK AO2
K0A9 060335Z AUTO 00000KT 10SM FEW050 SCT060 23/19 A3007 RMK AO2
K0A9 060315Z AUTO 00000KT 10SM SCT120 23/19 A3007 RMK AO2
K0A9 060255Z AUTO VRB04KT 10SM BKN120 23/19 A3006 RMK AO2
K0A9 060235Z AUTO 00000KT 10SM BKN110 23/19 A3006 RMK AO2
K0A9 060215Z AUTO 05003KT 10SM SCT110 23/20 A3005 RMK AO2
K0A9 060155Z AUTO 00000KT 10SM CLR 23/20 A3004 RMK AO2
K0A9 060135Z AUTO 00000KT 10SM CLR 23/20 A3004 RMK AO2
K0A9 060115Z AUTO 00000KT 10SM CLR 24/20 A3003 RMK AO2
K0A9 060055Z AUTO 00000KT 10SM CLR 25/21 A3003 RMK AO2